Whitacre, Virginia
Current Conditions -  °F | °C
As of 7:59 AM on Tuesday 21 Oct 2014 (Local Time) from KMRB Reporting Station
Haze Haze  
Wind Chill: 43°   Ceiling: Unl
Heat Index: 45°   Visibility: 3mi
Dew Point: 42°   Wind: 5mph
Humidity: 90%   Direction: 160°SSE
Pressure: 29.87"   Gusts: NA
Location:  39.3835°N, 78.3051°W
Report Text: KMRB 211159Z 16004KT 3SM BR FEW002 07/06 A2987 RMK AO2 T00720056
Loading
Personal Weather Stations






























Interactive Weather Map
Tropical Storm Tracking
New forecast layout! Learn more

10-Day Weather Forecast

Advertisements
Track Severe Weather on mobile